Time;durP1;ratioP1;P1;durP2;ratioP2;P2;SDS_P1;SDS_P2;PMS_P1;PMS_P2;Temp;Humidity;BMP_temperature;BMP_pressure;BME280_temperature;BME280_humidity;BME280_pressure;Samples;Min_cycle;Max_cycle;Signal;HPM_P1;HPM_P2
2022/07/05 00:02:23;;;;;;;15.10;9.40;;;;;;;22.00;72.91;100933.60;107618;1246;63290;-78
2022/07/05 00:04:52;;;;;;;12.60;9.30;;;;;;;21.95;73.39;100931.36;107518;1246;59835;-77
2022/07/05 00:07:21;;;;;;;13.20;10.20;;;;;;;21.90;73.54;100931.92;107483;1246;57531;-78
2022/07/05 00:09:56;;;;;;;14.40;9.30;;;;;;;21.83;73.96;100933.80;107577;1246;72856;-79
2022/07/05 00:12:32;;;;;;;12.00;8.70;;;;;;;21.79;74.03;100932.73;107567;1245;72832;-78
2022/07/05 00:15:01;;;;;;;15.40;9.10;;;;;;;21.76;74.10;100938.02;106901;1246;727834;-76
2022/07/05 00:17:30;;;;;;;11.90;9.40;;;;;;;21.73;74.19;100938.31;107327;1246;75551;-77
2022/07/05 00:19:59;;;;;;;16.60;9.50;;;;;;;21.68;74.05;100940.15;107384;1246;58996;-77
2022/07/05 00:22:28;;;;;;;14.80;9.90;;;;;;;21.64;73.09;100942.64;107455;1245;59082;-77
2022/07/05 00:24:57;;;;;;;15.20;9.50;;;;;;;21.57;73.87;100940.73;107351;1246;73920;-77
2022/07/05 00:27:26;;;;;;;12.70;8.80;;;;;;;21.54;73.18;100942.73;107448;1247;63290;-78
2022/07/05 00:29:55;;;;;;;13.10;9.20;;;;;;;21.50;73.66;100942.34;107430;1246;59884;-78
2022/07/05 00:32:24;;;;;;;13.60;9.40;;;;;;;21.43;75.26;100945.00;107306;1248;73260;-79
2022/07/05 00:34:53;;;;;;;15.60;10.10;;;;;;;21.39;75.55;100945.51;107267;1247;60477;-78
2022/07/05 00:37:22;;;;;;;11.50;9.10;;;;;;;21.37;75.75;100947.66;107551;1246;60572;-78
2022/07/05 00:39:50;;;;;;;11.30;9.20;;;;;;;21.34;76.10;100948.02;107493;1246;65369;-78
2022/07/05 00:42:19;;;;;;;11.90;8.80;;;;;;;21.30;76.18;100946.73;107583;1246;73225;-78
2022/07/05 00:44:48;;;;;;;11.80;9.30;;;;;;;21.23;76.48;100945.50;107560;1246;60427;-78
2022/07/05 00:47:18;;;;;;;13.40;9.90;;;;;;;21.21;76.23;100948.59;107598;1246;63284;-79
2022/07/05 00:49:47;;;;;;;13.10;9.50;;;;;;;21.17;76.35;100947.06;107495;1246;63011;-79
2022/07/05 00:52:16;;;;;;;13.20;9.40;;;;;;;21.14;75.39;100945.27;107660;1246;61667;-79
2022/07/05 00:54:48;;;;;;;11.40;9.50;;;;;;;21.09;76.07;100941.48;107675;1246;74520;-79
2022/07/05 00:57:21;;;;;;;13.30;9.60;;;;;;;21.04;76.45;100940.61;107506;1246;62316;-82
2022/07/05 00:59:51;;;;;;;11.50;9.70;;;;;;;20.99;77.10;100940.67;107559;1246;60038;-76
2022/07/05 01:02:22;;;;;;;14.20;9.70;;;;;;;20.95;77.54;100938.84;107396;1246;73934;-77
2022/07/05 01:04:51;;;;;;;12.80;9.80;;;;;;;20.95;77.67;100941.32;107367;1248;57534;-78
2022/07/05 01:07:23;;;;;;;14.80;9.20;;;;;;;20.95;77.48;100938.23;107042;1248;59008;-76
2022/07/05 01:09:52;;;;;;;10.80;9.10;;;;;;;20.94;77.25;100937.99;107313;1249;62245;-79
2022/07/05 01:12:22;;;;;;;12.20;10.00;;;;;;;20.90;77.70;100936.29;107558;1246;61504;-78
2022/07/05 01:14:53;;;;;;;12.60;9.70;;;;;;;20.87;77.88;100937.03;107368;1247;69822;-79
2022/07/05 01:17:23;;;;;;;11.20;9.50;;;;;;;20.87;77.71;100936.30;107253;1248;72915;-78
2022/07/05 01:19:53;;;;;;;11.90;9.40;;;;;;;20.89;77.63;100938.73;107354;1247;63071;-77
2022/07/05 01:22:26;;;;;;;11.60;9.50;;;;;;;20.92;77.80;100943.73;107341;1248;61695;-79
2022/07/05 01:24:55;;;;;;;12.50;9.60;;;;;;;20.93;77.67;100945.56;107471;1247;72432;-77
2022/07/05 01:27:24;;;;;;;14.00;9.80;;;;;;;20.92;77.68;100951.70;107585;1247;73122;-77
2022/07/05 01:29:53;;;;;;;11.90;9.50;;;;;;;20.90;77.49;100954.51;107558;1247;60492;-78
2022/07/05 01:32:22;;;;;;;15.10;11.00;;;;;;;20.90;76.54;100956.83;107732;1246;63299;-77
2022/07/05 01:34:51;;;;;;;14.20;10.80;;;;;;;20.75;77.45;100950.55;107507;1247;58467;-80
2022/07/05 01:37:20;;;;;;;16.50;10.60;;;;;;;20.72;78.46;100950.17;107540;1248;58346;-79
2022/07/05 01:39:49;;;;;;;15.20;10.90;;;;;;;20.77;78.34;100961.10;107406;1248;72807;-81
2022/07/05 01:42:18;;;;;;;12.50;10.60;;;;;;;20.79;78.34;100963.05;107251;1249;61202;-78
2022/07/05 01:44:47;;;;;;;14.30;10.10;;;;;;;20.81;78.24;100964.07;107209;1249;60079;-78
2022/07/05 01:47:17;;;;;;;15.80;10.00;;;;;;;20.82;78.01;100966.09;107374;1247;63320;-75
2022/07/05 01:49:49;;;;;;;14.10;10.10;;;;;;;20.81;77.84;100961.95;107274;1248;61377;-77
2022/07/05 01:52:22;;;;;;;19.90;10.60;;;;;;;20.85;77.97;100956.65;107288;1248;59084;-77
2022/07/05 01:54:50;;;;;;;16.20;9.60;;;;;;;20.89;77.28;100957.65;107200;1247;73738;-81
2022/07/05 01:57:19;;;;;;;14.70;9.80;;;;;;;20.93;77.52;100960.41;107315;1248;62005;-77
2022/07/05 01:59:48;;;;;;;13.70;10.00;;;;;;;21.01;77.30;100962.40;107354;1247;59264;-77
2022/07/05 02:02:18;;;;;;;15.80;10.00;;;;;;;21.00;76.88;100963.23;107596;1247;74082;-74
2022/07/05 02:04:49;;;;;;;15.60;10.20;;;;;;;20.96;76.39;100958.46;108257;1247;61162;-77
2022/07/05 02:07:18;;;;;;;14.00;10.30;;;;;;;20.87;76.32;100955.21;107503;1246;57526;-76
2022/07/05 02:09:47;;;;;;;11.90;9.50;;;;;;;20.77;77.36;100956.79;107267;1247;63243;-78
2022/07/05 02:12:16;;;;;;;14.80;10.10;;;;;;;20.69;78.00;100956.45;107333;1247;72322;-76
2022/07/05 02:14:45;;;;;;;15.20;10.20;;;;;;;20.66;78.36;100959.05;107272;1249;60850;-78
2022/07/05 02:17:17;;;;;;;14.60;10.10;;;;;;;20.61;78.35;100960.02;107366;1246;74000;-80
2022/07/05 02:19:47;;;;;;;17.00;10.90;;;;;;;20.58;78.71;100960.62;107275;1248;63889;-78
2022/07/05 02:22:16;;;;;;;14.30;10.40;;;;;;;20.54;79.20;100952.38;107374;1246;60986;-80
2022/07/05 02:24:45;;;;;;;13.10;9.90;;;;;;;20.54;79.15;100948.91;107495;1248;62674;-77
2022/07/05 02:27:21;;;;;;;16.10;10.60;;;;;;;20.53;78.97;100949.66;107442;1247;60905;-75
2022/07/05 02:29:50;;;;;;;16.20;10.20;;;;;;;20.55;78.95;100947.86;107372;1249;59655;-77
2022/07/05 02:32:23;;;;;;;;;;;;;;;20.57;78.81;100941.32;107303;1248;73017;-77
2022/07/05 02:34:51;;;;;;;18.70;11.50;;;;;;;20.57;78.61;100936.47;107455;1247;63337;-77
2022/07/05 02:37:20;;;;;;;15.90;11.10;;;;;;;20.59;78.57;100936.60;107351;1248;61677;-77
2022/07/05 02:39:50;;;;;;;14.40;10.60;;;;;;;20.59;78.48;100934.81;107387;1247;62226;-77
2022/07/05 02:42:19;;;;;;;15.60;11.00;;;;;;;20.59;77.99;100935.04;107426;1248;70555;-74
2022/07/05 02:44:48;;;;;;;15.90;11.40;;;;;;;20.58;78.63;100938.48;107447;1248;70157;-78
2022/07/05 02:47:19;;;;;;;17.60;11.80;;;;;;;20.54;78.83;100944.44;107277;1249;62440;-76
2022/07/05 02:49:48;;;;;;;14.80;10.90;;;;;;;20.54;78.12;100944.25;107536;1246;62500;-78
2022/07/05 02:52:17;;;;;;;15.20;10.80;;;;;;;20.54;78.85;100949.76;107289;1247;61804;-80
2022/07/05 02:54:45;;;;;;;18.30;11.40;;;;;;;20.54;79.16;100951.64;107464;1247;71737;-79
2022/07/05 02:57:16;;;;;;;15.40;11.40;;;;;;;20.54;78.95;100949.89;107608;1247;63216;-78
2022/07/05 02:59:45;;;;;;;15.40;11.00;;;;;;;20.54;78.74;100955.26;107325;1247;60474;-80
2022/07/05 03:02:14;;;;;;;16.40;10.50;;;;;;;20.50;78.98;100959.08;107408;1246;74217;-77
2022/07/05 03:04:43;;;;;;;16.50;10.40;;;;;;;20.46;79.29;100961.99;107473;1245;59007;-78
2022/07/05 03:07:13;;;;;;;13.50;10.20;;;;;;;20.46;79.34;100963.16;107500;1246;60664;-78
2022/07/05 03:09:42;;;;;;;18.70;10.50;;;;;;;20.51;79.11;100964.95;107420;1246;73401;-78
2022/07/05 03:12:12;;;;;;;19.90;11.70;;;;;;;20.57;78.63;100969.71;107476;1245;71926;-77
2022/07/05 03:14:40;;;;;;;17.60;11.40;;;;;;;20.63;78.90;100973.62;107267;1246;70669;-78
2022/07/05 03:17:10;;;;;;;14.00;11.10;;;;;;;20.69;78.53;100975.02;107289;1248;74093;-77
2022/07/05 03:19:38;;;;;;;18.20;11.10;;;;;;;20.74;78.36;100980.92;107263;1246;58933;-76
2022/07/05 03:22:08;;;;;;;17.20;11.40;;;;;;;20.82;78.16;100981.63;107535;1248;59244;-79
2022/07/05 03:24:38;;;;;;;27.60;17.10;;;;;;;20.88;77.68;100982.50;107555;1247;71891;-78
2022/07/05 03:27:07;;;;;;;19.00;12.20;;;;;;;20.94;77.63;100985.34;107453;1246;71822;-80
2022/07/05 03:29:37;;;;;;;26.60;17.40;;;;;;;20.97;77.68;100986.20;107616;1246;59151;-77
2022/07/05 03:32:06;;;;;;;19.70;11.70;;;;;;;21.03;77.83;100981.08;107478;1245;73193;-80
2022/07/05 03:34:35;;;;;;;16.80;12.90;;;;;;;21.11;77.60;100977.52;107276;1249;59030;-79
2022/07/05 03:37:04;;;;;;;19.30;11.40;;;;;;;21.19;77.44;100981.58;107667;1246;58917;-78
2022/07/05 03:39:33;;;;;;;22.40;12.30;;;;;;;21.28;77.12;100987.26;107750;1246;63044;-79
2022/07/05 03:42:03;;;;;;;17.00;12.40;;;;;;;21.39;76.65;100987.67;107674;1246;61626;-79
2022/07/05 03:44:32;;;;;;;22.30;13.10;;;;;;;21.50;76.34;100987.65;107486;1246;70042;-78
2022/07/05 03:47:03;;;;;;;17.70;12.10;;;;;;;21.60;75.80;100988.29;107573;1246;73672;-81
2022/07/05 03:49:32;;;;;;;18.90;12.50;;;;;;;21.68;75.37;100986.11;107595;1246;58947;-79
2022/07/05 03:52:02;;;;;;;19.40;12.20;;;;;;;21.73;75.29;100988.74;107702;1246;60611;-79
2022/07/05 03:54:32;;;;;;;19.30;12.70;;;;;;;21.79;75.10;100985.13;107529;1248;74519;-77
2022/07/05 03:57:02;;;;;;;20.00;13.30;;;;;;;21.86;74.92;100982.61;107627;1246;61268;-79
2022/07/05 03:59:31;;;;;;;19.70;13.30;;;;;;;21.94;74.73;100980.73;107668;1246;60825;-71
2022/07/05 04:02:00;;;;;;;19.20;13.00;;;;;;;22.05;74.39;100982.05;107548;1246;62549;-70
2022/07/05 04:04:29;;;;;;;18.00;13.10;;;;;;;22.16;74.32;100980.39;107557;1246;59382;-70
2022/07/05 04:06:58;;;;;;;21.90;13.80;;;;;;;22.26;74.14;100982.70;107710;1246;60379;-68
2022/07/05 04:09:28;;;;;;;20.30;13.60;;;;;;;22.29;73.91;100985.38;107487;1246;73565;-68
2022/07/05 04:11:57;;;;;;;26.40;14.70;;;;;;;22.37;73.91;100983.67;107672;1245;72150;-68
2022/07/05 04:14:26;;;;;;;26.30;14.10;;;;;;;22.51;73.14;100983.83;107581;1245;59660;-69
2022/07/05 04:16:55;;;;;;;20.50;12.60;;;;;;;22.64;72.92;100984.35;107654;1246;62565;-71
2022/07/05 04:19:25;;;;;;;23.70;14.10;;;;;;;22.76;72.45;100983.37;107592;1246;61253;-73
2022/07/05 04:21:54;;;;;;;17.70;13.50;;;;;;;22.85;72.32;100979.64;107518;1246;59204;-70
2022/07/05 04:24:23;;;;;;;22.10;14.40;;;;;;;22.94;72.04;100977.08;107548;1246;62269;-73
2022/07/05 04:26:52;;;;;;;22.60;15.10;;;;;;;23.08;71.80;100972.80;107566;1246;70692;-70
2022/07/05 04:29:21;;;;;;;23.00;15.20;;;;;;;23.21;71.34;100979.80;107472;1246;69243;-70
2022/07/05 04:31:50;;;;;;;23.70;14.90;;;;;;;23.34;71.15;100982.83;107639;1246;62448;-70
2022/07/05 04:34:19;;;;;;;19.30;15.40;;;;;;;23.49;70.91;100979.95;107561;1246;61254;-69
2022/07/05 04:36:48;;;;;;;24.30;15.20;;;;;;;23.62;70.40;100985.35;107472;1246;61690;-73
2022/07/05 04:39:20;;;;;;;20.40;14.80;;;;;;;23.74;70.17;100988.98;107553;1247;62815;-71
2022/07/05 04:41:54;;;;;;;23.30;15.30;;;;;;;23.83;68.98;100994.61;107591;1246;61638;-67
2022/07/05 04:44:23;;;;;;;25.20;15.60;;;;;;;23.89;68.76;101001.39;107713;1246;60209;-69
2022/07/05 04:46:52;;;;;;;24.30;13.70;;;;;;;23.99;68.40;100999.78;107516;1246;63250;-69
2022/07/05 04:49:21;;;;;;;24.30;14.60;;;;;;;24.03;67.80;101000.81;107589;1246;58830;-71
2022/07/05 04:51:50;;;;;;;25.20;15.10;;;;;;;23.96;68.11;100997.14;107746;1246;59060;-69
2022/07/05 04:54:20;;;;;;;19.00;13.30;;;;;;;23.97;68.27;100992.18;107735;1246;72802;-72
2022/07/05 04:56:49;;;;;;;20.20;15.00;;;;;;;24.02;68.09;100994.41;107638;1246;72093;-74
2022/07/05 04:59:18;;;;;;;21.40;14.00;;;;;;;24.04;67.94;100992.84;107698;1246;71106;-76
2022/07/05 05:01:53;;;;;;;27.00;15.00;;;;;;;24.06;67.57;100995.64;107463;1246;62898;-73
2022/07/05 05:04:22;;;;;;;26.30;15.10;;;;;;;24.00;67.90;100994.63;107786;1246;58767;-84
2022/07/05 05:06:51;;;;;;;28.60;15.30;;;;;;;24.03;67.98;100995.36;107615;1246;59481;-83
2022/07/05 05:09:21;;;;;;;19.80;13.70;;;;;;;24.11;67.74;100998.30;107571;1246;74228;-81
2022/07/05 05:11:51;;;;;;;20.60;14.10;;;;;;;24.16;67.61;100996.91;107629;1246;62048;-78
2022/07/05 05:14:20;;;;;;;26.00;15.70;;;;;;;24.22;67.41;100995.10;107662;1248;69813;-81
2022/07/05 05:16:49;;;;;;;27.50;14.40;;;;;;;24.25;67.21;100994.15;107654;1249;73721;-79
2022/07/05 05:19:19;;;;;;;24.70;15.10;;;;;;;24.33;67.09;100991.67;107450;1249;62049;-82
2022/07/05 05:21:48;;;;;;;22.20;13.80;;;;;;;24.44;66.95;100988.45;107306;1249;60211;-83
2022/07/05 05:24:16;;;;;;;20.70;14.30;;;;;;;24.57;66.35;100991.20;107209;1247;73853;-79
2022/07/05 05:26:45;;;;;;;23.20;15.10;;;;;;;24.65;66.27;100993.59;107413;1246;62067;-81
2022/07/05 05:29:14;;;;;;;27.40;14.20;;;;;;;24.71;65.86;100993.95;107603;1246;60067;-83
2022/07/05 05:31:43;;;;;;;17.40;12.30;;;;;;;24.83;65.43;100992.41;107495;1246;62510;-80
2022/07/05 05:34:12;;;;;;;16.50;12.80;;;;;;;24.96;64.85;100992.94;107398;1246;57482;-80
2022/07/05 05:36:41;;;;;;;16.40;12.60;;;;;;;25.03;64.53;100990.59;107469;1246;58890;-83
2022/07/05 05:39:10;;;;;;;19.50;14.30;;;;;;;25.03;64.72;100991.62;107548;1246;73743;-84
2022/07/05 05:41:39;;;;;;;21.20;13.40;;;;;;;25.09;64.43;100992.73;107561;1246;73012;-83
2022/07/05 05:44:09;;;;;;;14.90;11.80;;;;;;;25.22;63.73;100994.96;107556;1249;59796;-84
2022/07/05 05:46:38;;;;;;;21.70;14.60;;;;;;;25.25;63.66;100992.55;107905;1247;63293;-87
2022/07/05 05:49:07;;;;;;;18.30;12.80;;;;;;;25.30;63.56;100995.86;108040;1249;59400;-85
2022/07/05 05:51:49;;;;;;;25.00;13.80;;;;;;;25.36;63.80;100995.42;108457;1246;59031;-88
2022/07/05 05:54:23;;;;;;;20.10;14.50;;;;;;;25.50;63.35;100993.36;108424;1246;74170;-82
2022/07/05 05:56:51;;;;;;;19.20;14.50;;;;;;;25.67;62.48;100988.80;107613;1246;73642;-85
2022/07/05 05:59:20;;;;;;;21.40;13.70;;;;;;;25.76;62.03;100988.14;107649;1246;60585;-86
2022/07/05 06:01:50;;;;;;;18.90;13.40;;;;;;;25.84;62.34;100988.15;107667;1246;72432;-85
2022/07/05 06:04:19;;;;;;;17.10;14.20;;;;;;;26.00;61.98;100994.05;107782;1245;60891;-80
2022/07/05 06:06:48;;;;;;;18.70;13.30;;;;;;;26.12;61.40;100996.31;107874;1246;58807;-79
2022/07/05 06:09:17;;;;;;;17.40;13.40;;;;;;;26.22;60.93;100996.16;107680;1246;62197;-77
2022/07/05 06:11:46;;;;;;;16.70;13.80;;;;;;;26.33;60.32;100996.06;107644;1246;71589;-78
2022/07/05 06:14:14;;;;;;;23.00;14.10;;;;;;;26.49;60.45;100994.92;107425;1248;69740;-79
2022/07/05 06:16:43;;;;;;;23.60;14.00;;;;;;;26.63;59.94;100996.75;107543;1246;63770;-78
2022/07/05 06:19:12;;;;;;;17.10;12.90;;;;;;;26.73;59.47;100996.19;107777;1246;58769;-79
2022/07/05 06:21:41;;;;;;;24.40;14.00;;;;;;;26.88;58.90;100998.86;107618;1246;60395;-84
2022/07/05 06:24:09;;;;;;;19.10;14.20;;;;;;;26.85;58.18;100997.15;107951;1246;73525;-82
2022/07/05 06:26:38;;;;;;;21.90;14.00;;;;;;;26.99;58.49;101000.83;107790;1246;61431;-84
2022/07/05 06:29:07;;;;;;;22.80;13.20;;;;;;;27.13;57.89;100999.05;107883;1245;68248;-82
2022/07/05 06:31:36;;;;;;;18.30;12.30;;;;;;;27.39;57.43;100997.23;107755;1246;73852;-85
2022/07/05 06:34:06;;;;;;;18.30;12.40;;;;;;;27.44;57.08;100994.48;107849;1246;61721;-84
2022/07/05 06:36:35;;;;;;;20.60;13.80;;;;;;;27.56;56.79;100994.50;107617;1246;61329;-79
2022/07/05 06:39:03;;;;;;;20.90;14.70;;;;;;;27.53;56.80;100991.66;107719;1246;63300;-79
2022/07/05 06:41:32;;;;;;;21.40;13.00;;;;;;;27.46;56.87;100992.95;107826;1246;61784;-83
2022/07/05 06:44:01;;;;;;;21.60;13.00;;;;;;;27.75;56.12;100992.16;107848;1246;59341;-82
2022/07/05 06:46:50;;;;;;;16.70;13.00;;;;;;;27.89;55.75;100989.39;108264;1246;63334;-84
2022/07/05 06:49:19;;;;;;;19.60;13.20;;;;;;;27.99;55.76;100986.38;108583;1244;60109;-82
2022/07/05 06:51:48;;;;;;;21.80;14.00;;;;;;;28.16;55.39;100987.92;107975;1246;59053;-84
2022/07/05 06:54:17;;;;;;;23.20;12.90;;;;;;;28.32;55.10;100987.92;107689;1246;62973;-84
2022/07/05 06:57:06;;;;;;;22.90;12.50;;;;;;;28.45;54.72;100986.23;107671;1246;71189;-83
2022/07/05 06:59:55;;;;;;;17.60;12.90;;;;;;;28.62;53.42;100982.88;107623;1246;71243;-84
2022/07/05 07:02:24;;;;;;;19.30;13.10;;;;;;;28.73;53.56;100987.19;107633;1246;75475;-81
2022/07/05 07:04:53;;;;;;;19.70;13.90;;;;;;;28.85;52.92;100987.91;107720;1246;62141;-83
2022/07/05 07:10:28;;;;;;;18.50;12.70;;;;;;;29.13;52.77;100986.19;107582;1246;73571;-80
2022/07/05 07:12:58;;;;;;;19.50;12.90;;;;;;;29.21;51.31;100984.40;107756;1246;72616;-80
2022/07/05 07:15:29;;;;;;;17.30;12.20;;;;;;;29.30;50.48;100986.71;107534;1246;71155;-84
2022/07/05 07:17:59;;;;;;;19.60;12.40;;;;;;;29.43;50.94;100985.84;107768;1246;74464;-80
2022/07/05 07:20:28;;;;;;;17.50;12.50;;;;;;;29.45;49.43;100984.06;107314;1247;61452;-80
2022/07/05 07:22:57;;;;;;;17.80;13.40;;;;;;;29.47;49.62;100982.19;107564;1248;58930;-79
2022/07/05 07:25:26;;;;;;;19.20;12.50;;;;;;;29.57;49.72;100980.85;107544;1246;62206;-81
2022/07/05 07:27:56;;;;;;;20.40;12.50;;;;;;;29.76;48.70;100973.31;107513;1246;61715;-81
2022/07/05 07:30:28;;;;;;;17.80;12.20;;;;;;;29.79;48.00;100971.39;107516;1247;70136;-75
2022/07/05 07:32:57;;;;;;;15.50;11.30;;;;;;;29.95;47.60;100972.06;107644;1245;70958;-77
2022/07/05 07:35:26;;;;;;;17.70;12.10;;;;;;;30.03;47.42;100974.45;107816;1246;60209;-79
2022/07/05 07:37:55;;;;;;;17.10;11.70;;;;;;;30.05;47.53;100974.45;107665;1246;57650;-78
2022/07/05 07:40:24;;;;;;;17.90;12.40;;;;;;;30.04;46.91;100973.29;107793;1246;62901;-75
2022/07/05 07:42:53;;;;;;;13.70;11.60;;;;;;;29.96;47.04;100971.80;107769;1246;71818;-76
2022/07/05 07:45:21;;;;;;;12.90;10.10;;;;;;;30.22;46.97;100971.58;107867;1246;60822;-67
2022/07/05 07:47:50;;;;;;;12.90;10.80;;;;;;;30.34;45.67;100970.72;107583;1246;64791;-70
2022/07/05 07:50:20;;;;;;;13.10;10.20;;;;;;;30.50;45.12;100964.56;107653;1246;59055;-71
2022/07/05 07:52:49;;;;;;;14.70;11.20;;;;;;;30.75;44.78;100963.23;107695;1246;58695;-72
2022/07/05 07:55:18;;;;;;;15.10;11.00;;;;;;;30.79;44.82;100961.87;107513;1246;62202;-68
2022/07/05 07:57:47;;;;;;;15.70;11.20;;;;;;;30.82;44.64;100960.95;107722;1246;61723;-69
2022/07/05 08:00:17;;;;;;;17.40;11.30;;;;;;;30.93;43.75;100960.30;107640;1246;59834;-66
2022/07/05 08:02:46;;;;;;;13.80;11.00;;;;;;;30.95;43.75;100959.37;107689;1246;73157;-69
2022/07/05 08:05:15;;;;;;;13.60;10.90;;;;;;;31.08;43.38;100958.77;107536;1246;57471;-71
2022/07/05 08:07:44;;;;;;;16.40;10.90;;;;;;;31.15;43.33;100949.41;107621;1246;59129;-69
2022/07/05 08:10:13;;;;;;;13.00;10.80;;;;;;;31.32;42.72;100949.59;107539;1246;63045;-68
2022/07/05 08:12:42;;;;;;;15.90;11.10;;;;;;;31.47;42.72;100952.38;107600;1246;72767;-66
2022/07/05 08:15:11;;;;;;;17.90;11.10;;;;;;;31.54;42.08;100950.88;107524;1246;71499;-66
2022/07/05 08:21:30;;;;;;;14.40;10.40;;;;;;;31.57;42.32;100946.28;107501;1246;72665;-67
2022/07/05 08:23:16;;;;;;;14.20;10.10;;;;;;;31.79;39.93;100942.46;107504;1246;59230;-69
2022/07/05 08:25:45;;;;;;;10.30;8.40;;;;;;;32.02;39.70;100943.90;107559;1246;73920;-71
2022/07/05 08:28:14;;;;;;;12.70;9.20;;;;;;;31.90;38.64;100938.37;107556;1246;71216;-72
2022/07/05 08:30:43;;;;;;;10.70;9.30;;;;;;;31.89;38.54;100935.48;107552;1246;71378;-71
2022/07/05 08:33:12;;;;;;;16.70;9.30;;;;;;;31.72;38.88;100934.48;107616;1246;74271;-72
2022/07/05 08:35:41;;;;;;;15.20;9.50;;;;;;;31.85;39.12;100935.59;107468;1247;59098;-72
2022/07/05 08:38:12;;;;;;;14.60;9.60;;;;;;;32.10;38.54;100934.51;107351;1248;59043;-82
2022/07/05 08:40:47;;;;;;;15.60;9.10;;;;;;;32.10;38.27;100931.48;107684;1246;63092;-81
2022/07/05 08:43:17;;;;;;;12.30;9.50;;;;;;;32.18;38.55;100930.95;107632;1246;71481;-80
2022/07/05 08:45:47;;;;;;;13.10;9.70;;;;;;;32.36;38.13;100925.80;107645;1246;70585;-81
2022/07/05 08:48:17;;;;;;;12.10;7.80;;;;;;;32.53;36.91;100928.37;107511;1247;74364;-83
2022/07/05 08:50:50;;;;;;;17.50;8.00;;;;;;;32.58;36.85;100922.75;107636;1246;58720;-83
2022/07/05 08:53:27;;;;;;;10.60;7.50;;;;;;;32.91;35.17;100919.64;107820;1246;60159;-85
2022/07/05 08:55:56;;;;;;;13.50;8.20;;;;;;;32.89;35.32;100920.48;108040;1247;73251;-82
2022/07/05 08:58:25;;;;;;;11.90;6.80;;;;;;;32.87;34.58;100923.27;107954;1246;72895;-88
2022/07/05 09:00:54;;;;;;;10.30;7.00;;;;;;;33.10;33.67;100915.95;107850;1247;69617;-84
2022/07/05 09:03:28;;;;;;;9.90;7.60;;;;;;;32.91;33.80;100919.79;107859;1246;63073;-85
2022/07/05 09:05:59;;;;;;;11.10;7.20;;;;;;;33.08;34.48;100920.42;108024;1246;61401;-82
2022/07/05 09:08:33;;;;;;;9.60;7.40;;;;;;;33.32;34.05;100915.34;107925;1246;58933;-84
2022/07/05 09:11:03;;;;;;;9.40;7.40;;;;;;;33.51;33.52;100914.18;107749;1246;63422;-80
2022/07/05 09:13:41;;;;;;;10.00;7.20;;;;;;;33.72;33.68;100912.13;107591;1246;72753;-80
2022/07/05 09:16:32;;;;;;;13.70;7.60;;;;;;;33.89;32.91;100907.96;107786;1246;71447;-85
2022/07/05 09:19:07;;;;;;;10.40;7.50;;;;;;;33.96;32.46;100908.97;107764;1246;74595;-82
2022/07/05 09:21:36;;;;;;;11.20;7.60;;;;;;;33.78;32.19;100906.05;107860;1245;58808;-83
2022/07/05 09:24:09;;;;;;;8.70;6.80;;;;;;;33.39;32.97;100905.13;107560;1246;59193;-85
2022/07/05 09:26:52;;;;;;;10.50;7.20;;;;;;;33.84;32.41;100903.66;107515;1247;62262;-84
2022/07/05 09:29:21;;;;;;;11.30;7.30;;;;;;;33.96;32.16;100904.93;107645;1246;60682;-83
2022/07/05 09:32:23;;;;;;;8.70;7.10;;;;;;;34.19;31.63;100901.50;107576;1246;60107;-84
2022/07/05 09:34:52;;;;;;;14.10;7.70;;;;;;;34.34;31.36;100898.27;107504;1246;63317;-84
2022/07/05 09:37:21;;;;;;;9.40;6.90;;;;;;;34.66;31.08;100899.39;107569;1245;61342;-80
2022/07/05 09:39:51;;;;;;;10.90;7.30;;;;;;;34.60;30.57;100901.60;107560;1246;59513;-81
2022/07/05 09:42:23;;;;;;;10.00;6.70;;;;;;;34.59;30.68;100901.54;107362;1246;73556;-79
2022/07/05 09:44:56;;;;;;;12.10;7.50;;;;;;;34.61;31.08;100894.80;107430;1246;74680;-82
2022/07/05 09:47:27;;;;;;;;;;;;;;;34.80;30.28;100898.90;107639;1249;69711;-83
2022/07/05 09:50:03;;;;;;;12.80;6.70;;;;;;;34.90;29.24;100896.70;107601;1249;62504;-81
2022/07/05 09:52:42;;;;;;;9.80;6.50;;;;;;;34.96;28.80;100896.36;107561;1247;59071;-80
2022/07/05 09:55:16;;;;;;;9.90;6.80;;;;;;;34.93;28.32;100894.92;107584;1246;61484;-83
2022/07/05 09:57:50;;;;;;;9.40;6.30;;;;;;;35.14;28.74;100895.78;107542;1246;73499;-82
2022/07/05 10:00:21;;;;;;;8.20;6.20;;;;;;;35.11;27.79;100894.10;107664;1248;61911;-81
2022/07/05 10:03:02;;;;;;;8.50;6.30;;;;;;;35.27;28.18;100894.27;107625;1248;59943;-82
2022/07/05 10:05:32;;;;;;;8.60;6.60;;;;;;;35.43;27.74;100893.59;107619;1248;74022;-82
2022/07/05 10:08:02;;;;;;;13.00;6.40;;;;;;;35.08;27.55;100890.31;107605;1248;59086;-81
2022/07/05 10:10:32;;;;;;;8.80;5.90;;;;;;;34.25;28.67;100894.05;107650;1246;61351;-80
2022/07/05 10:13:05;;;;;;;9.10;6.20;;;;;;;34.16;29.16;100893.57;107673;1247;62700;-85
2022/07/05 10:15:37;;;;;;;12.60;6.40;;;;;;;34.24;29.42;100888.90;107561;1248;61705;-82
2022/07/05 10:18:13;;;;;;;10.40;6.20;;;;;;;34.39;28.94;100890.71;107299;1246;70948;-81
2022/07/05 10:20:46;;;;;;;10.10;6.30;;;;;;;34.59;28.05;100889.16;107589;1246;63750;-83
2022/07/05 10:23:19;;;;;;;7.80;6.00;;;;;;;34.74;27.91;100881.80;107472;1249;58986;-76
2022/07/05 10:25:50;;;;;;;9.90;5.90;;;;;;;34.94;27.30;100876.09;107633;1248;58364;-82
2022/07/05 10:28:21;;;;;;;7.20;5.60;;;;;;;35.05;27.34;100875.36;107761;1247;73600;-76
2022/07/05 10:30:51;;;;;;;10.90;6.20;;;;;;;35.10;27.13;100871.94;107543;1248;61446;-77
2022/07/05 10:33:26;;;;;;;;;;;;;;;35.52;26.78;100873.00;107692;1246;69520;-81
2022/07/05 10:35:58;;;;;;;9.30;6.10;;;;;;;36.08;25.90;100872.09;107810;1246;73468;-80
2022/07/05 10:38:29;;;;;;;7.70;6.10;;;;;;;36.45;25.93;100870.44;107670;1247;58828;-83
2022/07/05 10:41:05;;;;;;;9.40;5.60;;;;;;;36.97;24.23;100865.68;107888;1246;61360;-85
2022/07/05 10:43:37;;;;;;;5.80;4.80;;;;;;;37.24;23.49;100860.92;107650;1249;73150;-81
2022/07/05 10:46:10;;;;;;;7.50;5.60;;;;;;;37.63;22.88;100858.31;107600;1246;63958;-80
2022/07/05 10:48:41;;;;;;;8.30;5.30;;;;;;;37.67;22.38;100852.65;107879;1247;61048;-81
2022/07/05 10:51:35;;;;;;;8.60;5.30;;;;;;;37.77;22.26;100848.31;107946;1246;63411;-81
2022/07/05 10:54:16;;;;;;;8.20;5.90;;;;;;;37.37;22.60;100845.79;107664;1248;62382;-86
2022/07/05 10:57:41;;;;;;;5.70;5.10;;;;;;;37.30;23.05;100846.13;108475;1244;63494;-86
2022/07/05 11:00:15;;;;;;;8.50;5.90;;;;;;;37.39;21.89;100839.34;108286;1246;73942;-84
2022/07/05 11:02:44;;;;;;;7.50;6.20;;;;;;;37.79;21.69;100836.19;108030;1246;61143;-82
2022/07/05 11:05:16;;;;;;;8.30;5.60;;;;;;;38.16;21.24;100833.59;107722;1246;59238;-84
2022/07/05 11:08:06;;;;;;;8.70;5.60;;;;;;;38.46;20.81;100832.97;107687;1246;63603;-84
2022/07/05 11:10:35;;;;;;;7.30;5.00;;;;;;;38.91;20.46;100833.19;107592;1247;58844;-81
2022/07/05 11:13:37;;;;;;;5.80;4.90;;;;;;;39.03;20.34;100837.77;107607;1248;60849;-84
2022/07/05 11:16:31;;;;;;;6.60;5.60;;;;;;;38.96;19.81;100830.77;107725;1248;62766;-84
2022/07/05 11:19:11;;;;;;;9.00;5.50;;;;;;;38.11;20.54;100829.39;107834;1246;72417;-82
2022/07/05 11:22:01;;;;;;;6.00;5.40;;;;;;;37.10;21.58;100830.91;107920;1249;60256;-82
2022/07/05 11:24:37;;;;;;;9.20;4.80;;;;;;;37.27;21.50;100829.37;107782;1246;73296;-82
2022/07/05 11:27:11;;;;;;;7.30;5.40;;;;;;;36.85;22.14;100824.73;107637;1248;58814;-82
2022/07/05 11:29:53;;;;;;;6.00;5.40;;;;;;;36.63;22.54;100820.63;107834;1247;57542;-82
2022/07/05 11:32:41;;;;;;;7.30;5.60;;;;;;;36.61;22.19;100819.02;107821;1248;62969;-84